createdAt,value
2023-07-21T00:05:01.074Z,3.40
2023-07-21T00:12:35.882Z,3.45
2023-07-21T00:20:16.080Z,4.57
2023-07-21T00:27:50.352Z,1.98
2023-07-21T00:35:25.848Z,1.20
2023-07-21T00:43:00.213Z,2.88
2023-07-21T00:50:38.572Z,1.50
2023-07-21T00:58:13.011Z,1.75
2023-07-21T01:05:51.368Z,1.30
2023-07-21T01:13:27.789Z,2.70
2023-07-21T01:21:04.310Z,2.38
2023-07-21T01:28:43.769Z,1.70
2023-07-21T01:36:19.096Z,1.67
2023-07-21T01:43:56.325Z,3.17
2023-07-21T01:51:32.662Z,2.08
2023-07-21T01:59:12.846Z,3.95
2023-07-21T02:06:49.012Z,1.42
2023-07-21T02:14:24.733Z,3.92
2023-07-21T02:22:00.348Z,3.53
2023-07-21T02:29:35.844Z,2.85
2023-07-21T02:37:09.809Z,1.65
2023-07-21T02:44:46.324Z,5.03
2023-07-21T02:52:20.270Z,5.32
2023-07-21T02:59:56.269Z,2.25
2023-07-21T03:07:30.264Z,1.70
2023-07-21T03:15:07.167Z,2.03
2023-07-21T03:22:41.132Z,4.15
2023-07-21T03:30:17.195Z,5.80
2023-07-21T03:37:51.166Z,2.58
2023-07-21T03:45:27.303Z,7.35
2023-07-21T03:53:01.448Z,7.78
2023-07-21T04:00:38.546Z,5.77
2023-07-21T04:08:12.961Z,2.45
2023-07-21T04:15:52.545Z,4.20
2023-07-21T04:23:26.438Z,3.42
2023-07-21T04:31:02.534Z,2.42
2023-07-21T04:38:37.406Z,3.50
2023-07-21T04:46:13.538Z,5.25
2023-07-21T04:53:47.385Z,2.83
2023-07-21T05:01:23.274Z,3.50
2023-07-21T05:08:57.279Z,2.63
2023-07-21T05:16:33.261Z,2.47
2023-07-21T05:24:07.371Z,3.28
2023-07-21T05:31:43.150Z,3.80
2023-07-21T05:39:18.474Z,2.92
2023-07-21T05:46:54.802Z,3.22
2023-07-21T05:54:29.429Z,3.10
2023-07-21T06:02:06.238Z,2.43
2023-07-21T06:09:40.471Z,2.30
2023-07-21T06:17:15.999Z,3.17
2023-07-21T06:24:50.644Z,3.85
2023-07-21T06:32:27.974Z,4.13
2023-07-21T06:40:05.426Z,4.70
2023-07-21T06:47:41.102Z,7.70
2023-07-21T06:55:15.280Z,20.15
2023-07-21T07:02:50.925Z,30.03
2023-07-21T07:10:25.312Z,25.10
2023-07-21T07:18:01.011Z,29.83
2023-07-21T07:25:35.750Z,26.20
2023-07-21T07:33:12.175Z,25.17
2023-07-21T07:40:46.280Z,19.45
2023-07-21T07:48:23.519Z,17.00
2023-07-21T07:55:58.588Z,13.90
2023-07-21T08:11:10.913Z,12.93
2023-07-21T08:26:37.232Z,10.32
2023-07-21T08:34:12.481Z,9.60
2023-07-21T08:41:48.787Z,13.88
2023-07-21T08:49:24.152Z,15.25
2023-07-21T08:56:58.144Z,11.18
2023-07-21T09:04:33.636Z,11.45
2023-07-21T09:12:10.409Z,13.00
2023-07-21T09:19:47.833Z,6.82
2023-07-21T09:27:22.496Z,5.38
2023-07-21T09:35:02.086Z,7.75
2023-07-21T09:42:36.490Z,8.45
2023-07-21T09:50:12.644Z,8.33
2023-07-21T09:57:49.445Z,13.57
2023-07-21T10:05:26.512Z,12.85
2023-07-21T10:13:06.654Z,8.07
2023-07-21T10:20:44.428Z,6.25
2023-07-21T10:28:23.823Z,8.43
2023-07-21T10:36:15.109Z,6.60
2023-07-21T10:43:49.202Z,6.03
2023-07-21T10:51:24.733Z,4.63
2023-07-21T10:58:59.192Z,1.65
2023-07-21T11:06:34.549Z,3.40
2023-07-21T11:14:12.573Z,2.50
2023-07-21T11:21:50.833Z,2.25
2023-07-21T11:29:27.191Z,4.63
2023-07-21T11:37:05.788Z,1.60
2023-07-21T11:44:39.741Z,1.73
2023-07-21T11:52:26.032Z,4.63
2023-07-21T12:00:00.906Z,2.00
2023-07-21T12:07:36.215Z,1.53
2023-07-21T12:15:14.332Z,2.63
2023-07-21T12:22:50.005Z,1.58
2023-07-21T12:30:24.343Z,1.90
2023-07-21T12:38:00.199Z,1.40
2023-07-21T12:45:34.160Z,3.42
2023-07-21T12:53:09.632Z,2.35
2023-07-21T13:08:36.785Z,1.42
2023-07-21T13:16:11.340Z,2.25
2023-07-21T13:23:46.610Z,1.80
2023-07-21T13:31:20.819Z,2.13
2023-07-21T13:38:56.134Z,2.10
2023-07-21T13:46:30.565Z,4.00
2023-07-21T13:54:06.960Z,2.22
2023-07-21T14:01:42.898Z,4.18
2023-07-21T14:09:18.995Z,2.72
2023-07-21T14:16:54.799Z,1.70
2023-07-21T14:24:30.646Z,3.90
2023-07-21T14:32:04.803Z,3.03
2023-07-21T14:39:40.932Z,2.03
2023-07-21T14:47:15.006Z,1.88
2023-07-21T14:54:50.387Z,1.60
2023-07-21T15:02:24.398Z,2.88
2023-07-21T15:10:00.052Z,2.37
2023-07-21T15:17:34.236Z,2.10
2023-07-21T15:25:10.896Z,2.00
2023-07-21T15:32:44.965Z,2.33
2023-07-21T15:40:20.947Z,2.87
2023-07-21T15:47:54.955Z,1.73
2023-07-21T15:55:32.365Z,1.83
2023-07-21T16:03:07.553Z,1.60
2023-07-21T16:10:47.829Z,1.85
2023-07-21T16:18:23.549Z,1.80
2023-07-21T16:26:00.028Z,1.95
2023-07-21T16:33:35.278Z,2.03
2023-07-21T16:41:11.389Z,1.80
2023-07-21T16:48:45.881Z,3.35
2023-07-21T16:56:21.258Z,1.70
2023-07-21T17:03:55.206Z,1.73
2023-07-21T17:11:30.695Z,2.10
2023-07-21T17:19:05.489Z,1.98
2023-07-21T17:26:40.832Z,3.35
2023-07-21T17:34:15.020Z,4.55
2023-07-21T17:41:50.447Z,4.83
2023-07-21T17:49:24.345Z,2.95
2023-07-21T17:56:59.787Z,4.05
2023-07-21T18:04:33.846Z,3.50
2023-07-21T18:12:10.205Z,3.88
2023-07-21T18:19:44.425Z,2.25
2023-07-21T18:27:19.866Z,4.57
2023-07-21T18:34:54.199Z,2.53
2023-07-21T18:42:29.666Z,4.40
2023-07-21T18:50:03.870Z,3.53
2023-07-21T18:57:39.677Z,4.57
2023-07-21T19:05:14.180Z,2.85
2023-07-21T19:12:49.561Z,2.47
2023-07-21T19:20:23.805Z,3.17
2023-07-21T19:27:59.797Z,4.43
2023-07-21T19:35:37.596Z,4.85
2023-07-21T19:43:12.924Z,4.10
2023-07-21T19:50:46.787Z,4.32
2023-07-21T19:58:22.084Z,4.22
2023-07-21T20:05:56.077Z,3.72
2023-07-21T20:13:31.402Z,4.30
2023-07-21T20:21:06.720Z,3.55
2023-07-21T20:28:42.372Z,4.20
2023-07-21T20:36:16.355Z,4.22
2023-07-21T20:43:52.102Z,3.70
2023-07-21T20:51:27.832Z,4.85
2023-07-21T20:59:04.559Z,3.95
2023-07-21T21:06:38.543Z,4.95
2023-07-21T21:14:14.511Z,4.80
2023-07-21T21:21:48.455Z,4.93
2023-07-21T21:29:23.822Z,3.80
2023-07-21T21:36:57.735Z,5.53
2023-07-21T21:44:33.921Z,3.95
2023-07-21T21:52:08.488Z,4.60
2023-07-21T21:59:47.781Z,4.00
2023-07-21T22:07:23.717Z,4.18
2023-07-21T22:15:03.233Z,7.35
2023-07-21T22:22:39.049Z,3.80
2023-07-21T22:30:14.956Z,4.97
2023-07-21T22:37:48.856Z,5.65
2023-07-21T22:45:24.264Z,4.78
2023-07-21T22:52:59.897Z,3.85
2023-07-21T23:00:35.349Z,7.47
2023-07-21T23:08:09.388Z,4.85
2023-07-21T23:15:45.067Z,4.00
2023-07-21T23:23:19.087Z,4.95
2023-07-21T23:30:59.859Z,4.18
2023-07-21T23:38:34.017Z,4.78
2023-07-21T23:46:09.547Z,5.60
2023-07-21T23:53:43.469Z,5.15
